Time;durP1;ratioP1;P1;durP2;ratioP2;P2;SDS_P1;SDS_P2;PMS_P1;PMS_P2;Temp;Humidity;BMP_temperature;BMP_pressure;BME280_temperature;BME280_humidity;BME280_pressure;Samples;Min_cycle;Max_cycle;Signal;HPM_P1;HPM_P2
2022/03/04 00:02:11;;;;;;;7.78;6.15;;;;;;;;;;6042310;23;20011;-43
2022/03/04 00:04:37;;;;;;;13.43;5.88;;;;;;;;;;6041881;23;20015;-44
2022/03/04 00:07:05;;;;;;;8.23;6.55;;;;;;;;;;6044459;23;20390;-43
2022/03/04 00:09:31;;;;;;;7.80;6.30;;;;;;;;;;6016651;23;20444;-46
2022/03/04 00:11:56;;;;;;;7.30;5.88;;;;;;;;;;6044053;23;20027;-44
2022/03/04 00:14:22;;;;;;;6.93;6.10;;;;;;;;;;6041246;23;20444;-43
2022/03/04 00:16:47;;;;;;;8.73;6.18;;;;;;;;;;6019265;23;20015;-45
2022/03/04 00:19:12;;;;;;;7.10;5.93;;;;;;;;;;6042211;23;20015;-45
2022/03/04 00:21:47;;;;;;;7.90;6.68;;;;;;;;;;6043410;23;20035;-43
2022/03/04 00:24:13;;;;;;;7.15;6.20;;;;;;;;;;6042524;23;20018;-43
2022/03/04 00:26:39;;;;;;;7.88;5.93;;;;;;;;;;6042764;23;20375;-45
2022/03/04 00:29:05;;;;;;;8.25;6.30;;;;;;;;;;6041963;23;20008;-44
2022/03/04 00:31:30;;;;;;;7.95;6.32;;;;;;;;;;6043768;23;20491;-44
2022/03/04 00:33:55;;;;;;;6.90;5.80;;;;;;;;;;6042739;23;20038;-46
2022/03/04 00:36:24;;;;;;;7.15;6.05;;;;;;;;;;6042895;23;20023;-45
2022/03/04 00:38:49;;;;;;;10.07;6.65;;;;;;;;;;6017888;23;20011;-47
2022/03/04 00:41:16;;;;;;;8.90;6.82;;;;;;;;;;6042535;23;20031;-45
2022/03/04 00:43:43;;;;;;;9.27;7.43;;;;;;;;;;6042980;23;20011;-46
2022/03/04 00:46:08;;;;;;;7.90;6.22;;;;;;;;;;6043087;23;20039;-46
2022/03/04 00:48:33;;;;;;;9.05;7.15;;;;;;;;;;6042152;23;20027;-43
2022/03/04 00:50:58;;;;;;;12.35;7.20;;;;;;;;;;6043606;23;20018;-43
2022/03/04 00:53:24;;;;;;;7.90;5.57;;;;;;;;;;6040458;23;20021;-46
2022/03/04 00:55:49;;;;;;;8.23;6.45;;;;;;;;;;6043972;23;20011;-43
2022/03/04 00:58:14;;;;;;;6.18;5.03;;;;;;;;;;6041085;23;20338;-48
2022/03/04 01:00:40;;;;;;;9.40;5.80;;;;;;;;;;6043724;23;20021;-47
2022/03/04 01:03:05;;;;;;;6.18;5.13;;;;;;;;;;6015611;23;20083;-43
2022/03/04 01:05:30;;;;;;;6.20;5.28;;;;;;;;;;6042754;23;20496;-44
2022/03/04 01:07:55;;;;;;;6.13;5.00;;;;;;;;;;6040063;23;20016;-44
2022/03/04 01:10:21;;;;;;;4.25;3.85;;;;;;;;;;6041525;23;20534;-44
2022/03/04 01:12:46;;;;;;;4.07;3.50;;;;;;;;;;6041073;23;20023;-44
2022/03/04 01:15:12;;;;;;;5.60;3.60;;;;;;;;;;6042993;23;20027;-44
2022/03/04 01:17:37;;;;;;;4.20;3.08;;;;;;;;;;6040297;23;20052;-46
2022/03/04 01:20:03;;;;;;;4.65;3.78;;;;;;;;;;6042122;23;20016;-46
2022/03/04 01:22:28;;;;;;;3.72;3.25;;;;;;;;;;6040624;23;20840;-43
2022/03/04 01:24:54;;;;;;;3.60;3.30;;;;;;;;;;6043137;23;20035;-44
2022/03/04 01:27:19;;;;;;;4.28;3.88;;;;;;;;;;6039130;23;20616;-45
2022/03/04 01:29:44;;;;;;;3.83;3.40;;;;;;;;;;6043554;23;20026;-48
2022/03/04 01:32:09;;;;;;;4.40;3.50;;;;;;;;;;6040360;23;20019;-45
2022/03/04 01:34:35;;;;;;;3.80;3.28;;;;;;;;;;6042681;23;20011;-45
2022/03/04 01:37:00;;;;;;;3.83;3.35;;;;;;;;;;6040465;23;20022;-44
2022/03/04 01:39:25;;;;;;;5.55;4.13;;;;;;;;;;6041790;23;20028;-44
2022/03/04 01:41:50;;;;;;;4.57;3.03;;;;;;;;;;6041765;23;20015;-46
2022/03/04 01:44:16;;;;;;;4.45;2.95;;;;;;;;;;6042922;23;20007;-47
2022/03/04 01:46:41;;;;;;;5.93;3.15;;;;;;;;;;6041617;23;20012;-45
2022/03/04 01:49:06;;;;;;;5.45;3.00;;;;;;;;;;6043509;23;20243;-43
2022/03/04 01:51:32;;;;;;;4.47;3.28;;;;;;;;;;6040809;23;20027;-44
2022/03/04 01:53:57;;;;;;;8.27;3.08;;;;;;;;;;6043875;23;20397;-43
2022/03/04 01:56:24;;;;;;;5.25;3.42;;;;;;;;;;6041735;23;20019;-46
2022/03/04 01:58:49;;;;;;;4.10;2.45;;;;;;;;;;6044429;23;20015;-46
2022/03/04 02:01:15;;;;;;;4.15;2.50;;;;;;;;;;6038478;23;20003;-48
2022/03/04 02:03:40;;;;;;;3.88;2.20;;;;;;;;;;6042051;23;20437;-44
2022/03/04 02:06:05;;;;;;;3.67;3.00;;;;;;;;;;6015918;23;20015;-46
2022/03/04 02:08:30;;;;;;;4.97;2.83;;;;;;;;;;6043036;23;20015;-44
2022/03/04 02:10:56;;;;;;;5.05;2.95;;;;;;;;;;6041460;23;20064;-43
2022/03/04 02:13:21;;;;;;;10.38;4.78;;;;;;;;;;6042648;23;20094;-46
2022/03/04 02:15:46;;;;;;;6.22;4.30;;;;;;;;;;6041640;23;20019;-45
2022/03/04 02:18:12;;;;;;;7.65;5.20;;;;;;;;;;6043320;23;20017;-45
2022/03/04 02:20:39;;;;;;;7.13;4.97;;;;;;;;;;6040801;23;20015;-45
2022/03/04 02:23:04;;;;;;;6.45;3.83;;;;;;;;;;6041109;23;20042;-45
2022/03/04 02:25:29;;;;;;;6.85;4.60;;;;;;;;;;6040470;23;20483;-44
2022/03/04 02:27:54;;;;;;;5.07;4.13;;;;;;;;;;6043901;23;20085;-49
2022/03/04 02:30:20;;;;;;;7.28;4.93;;;;;;;;;;6040296;23;20015;-44
2022/03/04 02:32:45;;;;;;;7.45;5.60;;;;;;;;;;6042929;23;20030;-45
2022/03/04 02:35:10;;;;;;;9.02;4.82;;;;;;;;;;6041571;23;20014;-44
2022/03/04 02:37:38;;;;;;;8.40;5.40;;;;;;;;;;6042817;23;20024;-44
2022/03/04 02:40:03;;;;;;;7.50;4.05;;;;;;;;;;6041172;23;20017;-43
2022/03/04 02:42:28;;;;;;;8.25;5.07;;;;;;;;;;6042989;23;20020;-43
2022/03/04 02:44:54;;;;;;;5.80;4.43;;;;;;;;;;6039888;23;20015;-45
2022/03/04 02:47:19;;;;;;;6.38;4.78;;;;;;;;;;6042544;23;20011;-43
2022/03/04 02:49:44;;;;;;;8.20;4.55;;;;;;;;;;6036322;23;20035;-43
2022/03/04 02:52:09;;;;;;;5.28;3.65;;;;;;;;;;6039960;23;20023;-44
2022/03/04 02:54:35;;;;;;;5.47;3.78;;;;;;;;;;6042809;23;20094;-50
2022/03/04 02:57:00;;;;;;;5.15;3.72;;;;;;;;;;6042678;23;20040;-44
2022/03/04 02:59:25;;;;;;;3.95;2.95;;;;;;;;;;6041816;23;20036;-43
2022/03/04 03:01:50;;;;;;;8.98;4.00;;;;;;;;;;6043047;23;20094;-44
2022/03/04 03:04:16;;;;;;;6.55;4.22;;;;;;;;;;6041405;23;20012;-44
2022/03/04 03:06:41;;;;;;;6.43;3.95;;;;;;;;;;6042630;23;20045;-43
2022/03/04 03:09:06;;;;;;;6.78;3.13;;;;;;;;;;6017721;23;20011;-44
2022/03/04 03:11:32;;;;;;;4.85;4.35;;;;;;;;;;6041631;23;20019;-43
2022/03/04 03:13:57;;;;;;;4.68;3.40;;;;;;;;;;6042709;23;20036;-44
2022/03/04 03:16:22;;;;;;;5.85;2.47;;;;;;;;;;6041046;23;20019;-44
2022/03/04 03:18:47;;;;;;;3.78;2.70;;;;;;;;;;6043273;23;20067;-44
2022/03/04 03:21:13;;;;;;;3.78;2.53;;;;;;;;;;6041961;23;20019;-46
2022/03/04 03:23:38;;;;;;;3.13;2.22;;;;;;;;;;6041865;23;20566;-44
2022/03/04 03:26:03;;;;;;;2.83;2.13;;;;;;;;;;6043375;23;20410;-44
2022/03/04 03:28:29;;;;;;;2.17;1.60;;;;;;;;;;6042225;23;20023;-43
2022/03/04 03:30:54;;;;;;;2.55;1.40;;;;;;;;;;6043251;23;20553;-45
2022/03/04 03:33:19;;;;;;;1.33;1.08;;;;;;;;;;6042216;23;20035;-45
2022/03/04 03:35:45;;;;;;;2.75;1.33;;;;;;;;;;6044897;23;20007;-44
2022/03/04 03:38:10;;;;;;;0.68;0.68;;;;;;;;;;6043778;23;20074;-45
2022/03/04 03:40:35;;;;;;;1.08;0.75;;;;;;;;;;6044660;23;20003;-44
2022/03/04 03:43:01;;;;;;;2.67;0.90;;;;;;;;;;6042995;23;20007;-45
2022/03/04 03:45:26;;;;;;;1.40;1.08;;;;;;;;;;6043574;23;20019;-43
2022/03/04 03:47:53;;;;;;;3.88;1.00;;;;;;;;;;6042069;23;20438;-44
2022/03/04 03:50:19;;;;;;;0.73;0.70;;;;;;;;;;6043970;23;20015;-44
2022/03/04 03:52:44;;;;;;;1.95;0.82;;;;;;;;;;6042111;23;20029;-44
2022/03/04 03:55:09;;;;;;;0.75;0.70;;;;;;;;;;6044372;23;20031;-43
2022/03/04 03:57:34;;;;;;;1.63;0.75;;;;;;;;;;6042783;23;20324;-50
2022/03/04 04:00:00;;;;;;;3.10;0.80;;;;;;;;;;6043838;23;20019;-45
2022/03/04 04:02:26;;;;;;;0.60;0.60;;;;;;;;;;6042496;23;20007;-44
2022/03/04 04:04:51;;;;;;;1.27;0.98;;;;;;;;;;6044522;23;20022;-46
2022/03/04 04:07:16;;;;;;;1.05;0.77;;;;;;;;;;6042652;23;20014;-45
2022/03/04 04:09:42;;;;;;;1.00;0.77;;;;;;;;;;6044774;23;20023;-43
2022/03/04 04:12:07;;;;;;;1.10;1.00;;;;;;;;;;6017970;23;20023;-46
2022/03/04 04:14:33;;;;;;;1.23;0.88;;;;;;;;;;6042741;23;20034;-44
2022/03/04 04:16:58;;;;;;;2.30;0.60;;;;;;;;;;6041656;23;20020;-45
2022/03/04 04:19:24;;;;;;;1.17;0.65;;;;;;;;;;6043762;23;20007;-47
2022/03/04 04:21:50;;;;;;;2.28;0.75;;;;;;;;;;6039827;23;20036;-43
2022/03/04 04:24:16;;;;;;;1.48;0.70;;;;;;;;;;6044450;23;20027;-49
2022/03/04 04:26:41;;;;;;;1.02;0.73;;;;;;;;;;6042490;23;20015;-45
2022/03/04 04:29:06;;;;;;;0.50;0.50;;;;;;;;;;6043853;23;20011;-44
2022/03/04 04:31:32;;;;;;;1.33;0.98;;;;;;;;;;6041332;23;20055;-45
2022/03/04 04:33:58;;;;;;;1.42;1.30;;;;;;;;;;6044251;23;20011;-45
2022/03/04 04:36:23;;;;;;;1.15;0.82;;;;;;;;;;6040952;23;20031;-44
2022/03/04 04:38:49;;;;;;;1.20;0.82;;;;;;;;;;6036267;23;20015;-47
2022/03/04 04:41:15;;;;;;;1.25;0.65;;;;;;;;;;6042061;23;20015;-43
2022/03/04 04:43:40;;;;;;;1.17;1.08;;;;;;;;;;6042720;23;20031;-43
2022/03/04 04:46:05;;;;;;;1.40;0.95;;;;;;;;;;6043192;23;20012;-42
2022/03/04 04:48:31;;;;;;;1.83;1.00;;;;;;;;;;6043469;23;20023;-44
2022/03/04 04:50:59;;;;;;;1.15;1.05;;;;;;;;;;6040682;23;20027;-45
2022/03/04 04:53:24;;;;;;;2.65;0.90;;;;;;;;;;6043305;23;20031;-44
2022/03/04 04:55:49;;;;;;;1.60;1.45;;;;;;;;;;6042404;23;20011;-44
2022/03/04 04:58:14;;;;;;;0.60;0.60;;;;;;;;;;6041816;23;20019;-43
2022/03/04 05:00:40;;;;;;;1.67;0.70;;;;;;;;;;6042280;23;20044;-43
2022/03/04 05:03:05;;;;;;;1.77;1.23;;;;;;;;;;6043650;23;20014;-43
2022/03/04 05:05:31;;;;;;;4.53;0.77;;;;;;;;;;6041818;23;20026;-43
2022/03/04 05:07:56;;;;;;;2.25;0.80;;;;;;;;;;6042792;23;20471;-43
2022/03/04 05:10:21;;;;;;;1.90;0.95;;;;;;;;;;6042356;23;20819;-43
2022/03/04 05:12:47;;;;;;;0.80;0.65;;;;;;;;;;6043356;23;20016;-44
2022/03/04 05:15:12;;;;;;;1.25;0.60;;;;;;;;;;6041016;23;20010;-44
2022/03/04 05:17:38;;;;;;;0.75;0.75;;;;;;;;;;6042680;23;20022;-43
2022/03/04 05:20:03;;;;;;;2.15;0.80;;;;;;;;;;6041047;23;20015;-47
2022/03/04 05:22:29;;;;;;;2.20;0.90;;;;;;;;;;6042482;23;20063;-43
2022/03/04 05:24:54;;;;;;;2.55;1.20;;;;;;;;;;6040803;23;20011;-44
2022/03/04 05:27:19;;;;;;;1.80;0.98;;;;;;;;;;6042880;23;20039;-44
2022/03/04 05:29:44;;;;;;;0.80;0.80;;;;;;;;;;6040928;23;20031;-44
2022/03/04 05:32:10;;;;;;;1.10;0.88;;;;;;;;;;6042512;23;20023;-45
2022/03/04 05:34:36;;;;;;;1.80;1.30;;;;;;;;;;6040369;23;20015;-48
2022/03/04 05:37:01;;;;;;;1.35;1.05;;;;;;;;;;6042563;23;20031;-43
2022/03/04 05:39:27;;;;;;;1.77;1.17;;;;;;;;;;6039329;23;20015;-43
2022/03/04 05:41:52;;;;;;;5.28;1.33;;;;;;;;;;6018046;23;20480;-43
2022/03/04 05:44:17;;;;;;;1.35;1.00;;;;;;;;;;6039126;23;20009;-43
2022/03/04 05:46:42;;;;;;;1.48;1.10;;;;;;;;;;6042039;23;20071;-43
2022/03/04 05:49:08;;;;;;;3.22;1.88;;;;;;;;;;6040327;23;20047;-44
2022/03/04 05:51:33;;;;;;;1.67;1.42;;;;;;;;;;6042644;23;20055;-45
2022/03/04 05:53:59;;;;;;;2.33;1.55;;;;;;;;;;6040400;23;20012;-43
2022/03/04 05:56:24;;;;;;;3.33;1.65;;;;;;;;;;6041647;23;20015;-45
2022/03/04 05:58:50;;;;;;;2.00;1.83;;;;;;;;;;6042596;23;20011;-43
2022/03/04 06:01:16;;;;;;;2.40;1.92;;;;;;;;;;6040757;23;20064;-47
2022/03/04 06:03:41;;;;;;;2.83;1.98;;;;;;;;;;6042608;23;20019;-43
2022/03/04 06:06:09;;;;;;;2.75;2.13;;;;;;;;;;6041278;23;20058;-42
2022/03/04 06:08:34;;;;;;;2.85;1.70;;;;;;;;;;6042427;23;20013;-44
2022/03/04 06:10:59;;;;;;;2.35;1.95;;;;;;;;;;6041520;23;20035;-44
2022/03/04 06:13:25;;;;;;;2.72;1.48;;;;;;;;;;6041619;23;20031;-43
2022/03/04 06:15:50;;;;;;;3.08;1.80;;;;;;;;;;6040236;23;20012;-44
2022/03/04 06:18:15;;;;;;;3.08;1.45;;;;;;;;;;6042359;23;20030;-43
2022/03/04 06:20:41;;;;;;;1.98;1.50;;;;;;;;;;6042022;23;20015;-44
2022/03/04 06:23:06;;;;;;;1.70;1.02;;;;;;;;;;6042588;23;20063;-42
2022/03/04 06:25:32;;;;;;;2.67;2.20;;;;;;;;;;6040962;23;20016;-43
2022/03/04 06:27:58;;;;;;;1.70;1.30;;;;;;;;;;6042874;23;20773;-43
2022/03/04 06:30:25;;;;;;;1.70;1.40;;;;;;;;;;6040831;23;20066;-43
2022/03/04 06:32:50;;;;;;;2.47;1.55;;;;;;;;;;6042461;23;20042;-44
2022/03/04 06:35:16;;;;;;;1.90;1.38;;;;;;;;;;6040856;23;20022;-44
2022/03/04 06:37:41;;;;;;;1.90;1.70;;;;;;;;;;6042692;23;20033;-44
2022/03/04 06:40:06;;;;;;;1.55;1.15;;;;;;;;;;6041542;23;20014;-44
2022/03/04 06:42:32;;;;;;;2.47;1.50;;;;;;;;;;6041453;23;20023;-44
2022/03/04 06:44:57;;;;;;;1.38;1.08;;;;;;;;;;6040834;23;20035;-43
2022/03/04 06:47:23;;;;;;;3.03;1.58;;;;;;;;;;6040902;23;20702;-43
2022/03/04 06:49:48;;;;;;;3.03;1.17;;;;;;;;;;6042479;23;20011;-44
2022/03/04 06:52:13;;;;;;;3.40;1.33;;;;;;;;;;6014433;23;20027;-47
2022/03/04 06:54:39;;;;;;;1.85;1.08;;;;;;;;;;6041777;23;20091;-45
2022/03/04 06:57:04;;;;;;;2.10;1.27;;;;;;;;;;6040649;23;20007;-44
2022/03/04 06:59:30;;;;;;;2.97;1.60;;;;;;;;;;6041492;23;20019;-44
2022/03/04 07:01:55;;;;;;;3.65;1.52;;;;;;;;;;6044201;23;20043;-47
2022/03/04 07:04:20;;;;;;;2.65;1.45;;;;;;;;;;6042763;23;20022;-44
2022/03/04 07:06:46;;;;;;;3.30;1.40;;;;;;;;;;6044213;23;20026;-43
2022/03/04 07:09:12;;;;;;;6.70;1.10;;;;;;;;;;6043650;23;20043;-44
2022/03/04 07:11:37;;;;;;;2.45;1.45;;;;;;;;;;6043656;23;20035;-44
2022/03/04 07:14:02;;;;;;;2.58;1.35;;;;;;;;;;6043267;23;20007;-44
2022/03/04 07:16:27;;;;;;;1.83;1.55;;;;;;;;;;6043105;23;20030;-43
2022/03/04 07:18:53;;;;;;;2.80;1.42;;;;;;;;;;6043161;23;20011;-44
2022/03/04 07:21:18;;;;;;;1.20;1.10;;;;;;;;;;6018008;23;20019;-47
2022/03/04 07:23:43;;;;;;;2.35;1.00;;;;;;;;;;6043356;23;20015;-43
2022/03/04 07:26:10;;;;;;;2.35;0.98;;;;;;;;;;6043965;23;20011;-43
2022/03/04 07:28:35;;;;;;;1.98;1.30;;;;;;;;;;6042622;23;20162;-46
2022/03/04 07:31:01;;;;;;;1.40;1.00;;;;;;;;;;6041820;23;20011;-44
2022/03/04 07:33:26;;;;;;;0.70;0.70;;;;;;;;;;6015639;23;20018;-45
2022/03/04 07:35:51;;;;;;;1.98;1.10;;;;;;;;;;6044278;23;20007;-43
2022/03/04 07:38:16;;;;;;;1.05;1.00;;;;;;;;;;6040932;23;20035;-45
2022/03/04 07:40:42;;;;;;;2.88;1.05;;;;;;;;;;6019011;23;20011;-44
2022/03/04 07:43:07;;;;;;;3.85;1.02;;;;;;;;;;6040162;23;20031;-44
2022/03/04 07:45:33;;;;;;;4.07;1.20;;;;;;;;;;6040572;23;20020;-46
2022/03/04 07:47:59;;;;;;;1.98;1.33;;;;;;;;;;6041232;23;20076;-43
2022/03/04 07:50:24;;;;;;;8.55;1.45;;;;;;;;;;6038851;23;20019;-44
2022/03/04 07:52:49;;;;;;;4.40;1.33;;;;;;;;;;6040542;23;20027;-44
2022/03/04 07:55:15;;;;;;;0.98;0.70;;;;;;;;;;6013524;23;20092;-45
2022/03/04 07:57:41;;;;;;;1.63;1.13;;;;;;;;;;6040393;23;20021;-46
2022/03/04 08:00:10;;;;;;;1.95;1.23;;;;;;;;;;6040767;23;20298;-44
2022/03/04 08:02:35;;;;;;;2.10;1.17;;;;;;;;;;6040365;23;20019;-46
2022/03/04 08:05:01;;;;;;;1.83;1.48;;;;;;;;;;6040340;23;20011;-42
2022/03/04 08:07:26;;;;;;;2.78;1.83;;;;;;;;;;6015243;23;20015;-43
2022/03/04 08:09:52;;;;;;;3.92;1.65;;;;;;;;;;6041785;23;20011;-46
2022/03/04 08:12:17;;;;;;;6.38;1.85;;;;;;;;;;6038953;23;20385;-43
2022/03/04 08:14:42;;;;;;;4.45;1.20;;;;;;;;;;6040745;23;20063;-43
2022/03/04 08:17:08;;;;;;;2.33;1.23;;;;;;;;;;6039978;23;20015;-44
2022/03/04 08:19:35;;;;;;;0.80;0.70;;;;;;;;;;6043217;23;20016;-47
2022/03/04 08:22:01;;;;;;;2.05;1.67;;;;;;;;;;6043013;23;20015;-44
2022/03/04 08:24:26;;;;;;;8.18;1.50;;;;;;;;;;6043195;23;20019;-45
2022/03/04 08:26:51;;;;;;;2.45;0.93;;;;;;;;;;6043057;23;20016;-45
2022/03/04 08:29:17;;;;;;;2.28;1.30;;;;;;;;;;6043163;23;20118;-45
2022/03/04 08:31:42;;;;;;;1.70;1.10;;;;;;;;;;6041140;23;20027;-46
2022/03/04 08:34:08;;;;;;;1.30;1.10;;;;;;;;;;6043339;23;20058;-45
2022/03/04 08:36:35;;;;;;;0.65;0.65;;;;;;;;;;6042635;23;20027;-46
2022/03/04 08:39:03;;;;;;;3.47;1.15;;;;;;;;;;6043603;23;20086;-44
2022/03/04 08:41:28;;;;;;;2.72;1.10;;;;;;;;;;6041141;23;20051;-45
2022/03/04 08:43:53;;;;;;;4.20;1.42;;;;;;;;;;6043096;23;20067;-45
2022/03/04 08:46:19;;;;;;;2.17;1.08;;;;;;;;;;6041210;23;20023;-44
2022/03/04 08:48:44;;;;;;;1.70;0.88;;;;;;;;;;6041103;23;20019;-45
2022/03/04 08:51:09;;;;;;;2.22;1.27;;;;;;;;;;6043235;23;20004;-45
2022/03/04 08:53:35;;;;;;;2.42;1.35;;;;;;;;;;6036510;23;20022;-45
2022/03/04 08:56:00;;;;;;;1.05;0.93;;;;;;;;;;6012929;23;20022;-45
2022/03/04 08:58:25;;;;;;;4.20;1.55;;;;;;;;;;6038562;23;20023;-44
2022/03/04 09:00:51;;;;;;;1.90;0.88;;;;;;;;;;6038349;23;20017;-44
2022/03/04 09:03:16;;;;;;;7.53;1.65;;;;;;;;;;6037382;23;20071;-46
2022/03/04 09:05:41;;;;;;;2.05;1.08;;;;;;;;;;6036950;23;20018;-44
2022/03/04 09:08:07;;;;;;;6.47;1.42;;;;;;;;;;6037133;23;20007;-47
2022/03/04 09:10:32;;;;;;;3.10;1.23;;;;;;;;;;6020994;23;20059;-45
2022/03/04 09:12:57;;;;;;;1.63;1.13;;;;;;;;;;6009138;23;20030;-44
2022/03/04 09:15:22;;;;;;;2.55;1.20;;;;;;;;;;6036414;23;20015;-45
2022/03/04 09:17:48;;;;;;;3.47;1.85;;;;;;;;;;6028908;23;20039;-45
2022/03/04 09:20:19;;;;;;;6.72;1.55;;;;;;;;;;6018838;23;20011;-45
2022/03/04 09:22:44;;;;;;;4.95;1.08;;;;;;;;;;6023950;23;20021;-44
2022/03/04 09:25:10;;;;;;;4.00;1.42;;;;;;;;;;6024937;23;20011;-48
2022/03/04 09:27:35;;;;;;;3.47;1.60;;;;;;;;;;6025194;23;20019;-46
2022/03/04 09:30:00;;;;;;;2.53;1.70;;;;;;;;;;6033979;23;20059;-44
2022/03/04 09:32:25;;;;;;;4.50;1.40;;;;;;;;;;6028129;23;20456;-45
2022/03/04 09:34:51;;;;;;;4.22;1.73;;;;;;;;;;6034066;23;20019;-44
2022/03/04 09:37:16;;;;;;;2.67;1.42;;;;;;;;;;6031822;23;20087;-44
2022/03/04 09:39:41;;;;;;;2.80;1.50;;;;;;;;;;6043432;23;20015;-44
2022/03/04 09:42:07;;;;;;;2.08;1.30;;;;;;;;;;6041788;23;20016;-47
2022/03/04 09:44:32;;;;;;;4.00;1.00;;;;;;;;;;6042833;23;20027;-45
2022/03/04 09:46:58;;;;;;;1.98;1.45;;;;;;;;;;6042388;23;20015;-44
2022/03/04 09:49:26;;;;;;;3.22;1.75;;;;;;;;;;6040342;23;20039;-44
2022/03/04 09:51:52;;;;;;;2.50;1.63;;;;;;;;;;6042369;23;20019;-45
2022/03/04 09:54:17;;;;;;;3.58;1.58;;;;;;;;;;6040834;23;20016;-44
2022/03/04 09:56:42;;;;;;;3.63;1.70;;;;;;;;;;6042711;23;20038;-45
2022/03/04 09:59:08;;;;;;;4.05;1.42;;;;;;;;;;6040752;23;20011;-45
2022/03/04 10:01:33;;;;;;;3.60;1.08;;;;;;;;;;6042224;23;20004;-45
2022/03/04 10:03:58;;;;;;;2.65;1.60;;;;;;;;;;6040697;23;20051;-45
2022/03/04 10:06:23;;;;;;;2.45;1.25;;;;;;;;;;6042012;23;20063;-44
2022/03/04 10:08:50;;;;;;;6.20;1.88;;;;;;;;;;6041816;23;20011;-44
2022/03/04 10:11:36;;;;;;;13.32;3.47;;;;;;;;;;6042250;23;20019;-50
2022/03/04 10:14:13;;;;;;;3.30;1.27;;;;;;;;;;6016484;23;20003;-44
2022/03/04 10:16:39;;;;;;;3.00;1.88;;;;;;;;;;6041909;23;20034;-45
2022/03/04 10:19:05;;;;;;;2.67;1.55;;;;;;;;;;6014843;23;20034;-44
2022/03/04 10:21:46;;;;;;;2.97;1.33;;;;;;;;;;6041967;23;20028;-45
2022/03/04 10:24:11;;;;;;;6.35;2.08;;;;;;;;;;6041831;23;20011;-46
2022/03/04 10:26:36;;;;;;;3.85;1.58;;;;;;;;;;6040040;23;20516;-45
2022/03/04 10:29:16;;;;;;;4.07;1.65;;;;;;;;;;6041532;23;20011;-44
2022/03/04 10:31:49;;;;;;;6.20;1.67;;;;;;;;;;6041579;23;20331;-44
2022/03/04 10:34:14;;;;;;;3.58;1.55;;;;;;;;;;6042025;23;20011;-44
2022/03/04 10:36:52;;;;;;;2.40;1.50;;;;;;;;;;6040703;23;20038;-46
2022/03/04 10:39:18;;;;;;;1.38;1.17;;;;;;;;;;6041782;23;20106;-46
2022/03/04 10:41:49;;;;;;;2.70;1.35;;;;;;;;;;6042342;23;20015;-46
2022/03/04 10:44:24;;;;;;;3.10;1.25;;;;;;;;;;6041615;23;20075;-47
2022/03/04 10:46:53;;;;;;;3.47;1.55;;;;;;;;;;6041216;23;20044;-46
2022/03/04 10:49:29;;;;;;;5.22;1.77;;;;;;;;;;6039849;23;20015;-46
2022/03/04 10:52:05;;;;;;;10.18;2.33;;;;;;;;;;6042803;23;20019;-46
2022/03/04 10:54:30;;;;;;;4.03;1.92;;;;;;;;;;6041471;23;20053;-46
2022/03/04 10:56:56;;;;;;;2.92;1.52;;;;;;;;;;6041010;23;20011;-48
2022/03/04 10:59:24;;;;;;;6.95;1.67;;;;;;;;;;6041618;23;20015;-45
2022/03/04 11:01:51;;;;;;;4.82;1.27;;;;;;;;;;6041253;23;20012;-45
2022/03/04 11:04:17;;;;;;;2.53;1.40;;;;;;;;;;6040149;23;20023;-46
2022/03/04 11:06:45;;;;;;;3.08;1.23;;;;;;;;;;6017537;23;20053;-46
2022/03/04 11:09:10;;;;;;;5.85;1.50;;;;;;;;;;6011542;23;20032;-47
2022/03/04 11:11:36;;;;;;;4.88;1.60;;;;;;;;;;6036625;23;20019;-50
2022/03/04 11:14:01;;;;;;;11.35;1.52;;;;;;;;;;6041870;23;20015;-44
2022/03/04 11:16:27;;;;;;;5.38;1.40;;;;;;;;;;6039543;23;20011;-45
2022/03/04 11:18:54;;;;;;;4.40;2.08;;;;;;;;;;6041738;23;20499;-45
2022/03/04 11:21:19;;;;;;;5.68;2.65;;;;;;;;;;6041312;23;20022;-47
2022/03/04 11:23:46;;;;;;;3.22;1.73;;;;;;;;;;6041984;23;20007;-46
2022/03/04 11:26:17;;;;;;;4.47;2.08;;;;;;;;;;6042374;23;20015;-46
2022/03/04 11:28:43;;;;;;;4.88;1.35;;;;;;;;;;6015980;23;20015;-46
2022/03/04 11:31:10;;;;;;;7.72;1.83;;;;;;;;;;6042440;23;20035;-45
2022/03/04 11:33:42;;;;;;;4.38;1.70;;;;;;;;;;6041366;23;20797;-49
2022/03/04 11:36:15;;;;;;;13.00;2.10;;;;;;;;;;6041348;23;20253;-45
2022/03/04 11:38:46;;;;;;;7.03;1.83;;;;;;;;;;6041272;23;20012;-44
2022/03/04 11:41:16;;;;;;;4.28;1.90;;;;;;;;;;6041636;23;20057;-48
2022/03/04 11:43:49;;;;;;;6.05;1.90;;;;;;;;;;6041650;23;20015;-47
2022/03/04 11:46:21;;;;;;;5.20;1.83;;;;;;;;;;6041409;23;20181;-47
2022/03/04 11:48:48;;;;;;;7.75;1.50;;;;;;;;;;6041740;23;20038;-45
2022/03/04 11:51:14;;;;;;;5.63;1.50;;;;;;;;;;6043905;23;20008;-47
2022/03/04 11:53:39;;;;;;;12.60;2.72;;;;;;;;;;6041872;23;20069;-45
2022/03/04 11:56:11;;;;;;;3.30;1.70;;;;;;;;;;6043414;23;20015;-44
2022/03/04 11:58:54;;;;;;;7.90;1.98;;;;;;;;;;6043272;23;20396;-46
2022/03/04 12:01:33;;;;;;;5.53;1.52;;;;;;;;;;6042384;23;20067;-45
2022/03/04 12:04:06;;;;;;;3.25;1.20;;;;;;;;;;6042599;23;20013;-48
2022/03/04 12:06:31;;;;;;;2.97;1.35;;;;;;;;;;6042190;23;20043;-46
2022/03/04 12:08:58;;;;;;;7.43;1.65;;;;;;;;;;6043119;23;20016;-48
2022/03/04 12:11:24;;;;;;;3.80;1.70;;;;;;;;;;6042911;23;20023;-45
2022/03/04 12:14:05;;;;;;;4.82;1.38;;;;;;;;;;6017231;23;20103;-45
2022/03/04 12:16:51;;;;;;;5.60;1.17;;;;;;;;;;6043047;23;20008;-44
2022/03/04 12:19:49;;;;;;;5.20;1.27;;;;;;;;;;6043402;23;20011;-44
2022/03/04 12:22:15;;;;;;;8.50;1.60;;;;;;;;;;6010934;23;20043;-45
2022/03/04 12:24:59;;;;;;;11.35;1.30;;;;;;;;;;6043211;23;20040;-48
2022/03/04 12:27:34;;;;;;;2.95;1.40;;;;;;;;;;6043357;23;20030;-45
2022/03/04 12:30:13;;;;;;;1.73;1.50;;;;;;;;;;6042218;23;20019;-44
2022/03/04 12:32:44;;;;;;;3.38;1.27;;;;;;;;;;6043203;23;20019;-44
2022/03/04 12:35:10;;;;;;;5.63;1.65;;;;;;;;;;6042124;23;20071;-44
2022/03/04 12:37:35;;;;;;;5.47;1.50;;;;;;;;;;6042960;23;20034;-46
2022/03/04 12:40:02;;;;;;;6.25;2.20;;;;;;;;;;6042767;23;20015;-45
2022/03/04 12:42:27;;;;;;;4.25;1.30;;;;;;;;;;6043292;23;20341;-46
2022/03/04 12:44:54;;;;;;;9.38;1.30;;;;;;;;;;6041882;23;20011;-44
2022/03/04 12:47:19;;;;;;;6.82;1.77;;;;;;;;;;6042081;23;20016;-44
2022/03/04 12:49:46;;;;;;;3.42;1.15;;;;;;;;;;6042682;23;20031;-44
2022/03/04 12:52:11;;;;;;;5.82;1.52;;;;;;;;;;6042906;23;20026;-45
2022/03/04 12:54:37;;;;;;;3.20;1.48;;;;;;;;;;6042336;23;20011;-43
2022/03/04 12:57:04;;;;;;;3.80;1.45;;;;;;;;;;6043249;23;20015;-44
2022/03/04 12:59:31;;;;;;;2.47;1.13;;;;;;;;;;6041183;23;20011;-45
2022/03/04 13:01:56;;;;;;;3.15;0.98;;;;;;;;;;6043234;23;20052;-46
2022/03/04 13:04:22;;;;;;;4.32;1.65;;;;;;;;;;6041384;23;20012;-44
2022/03/04 13:06:57;;;;;;;3.80;1.13;;;;;;;;;;6043370;23;20035;-43
2022/03/04 13:09:22;;;;;;;7.03;1.48;;;;;;;;;;6016860;23;20018;-44
2022/03/04 13:11:47;;;;;;;3.80;1.48;;;;;;;;;;6042136;23;20067;-45
2022/03/04 13:14:17;;;;;;;7.53;1.83;;;;;;;;;;6038293;23;20015;-45
2022/03/04 13:16:43;;;;;;;8.07;1.50;;;;;;;;;;6041846;23;20019;-44
2022/03/04 13:19:10;;;;;;;5.78;1.58;;;;;;;;;;6041321;23;20015;-44
2022/03/04 13:21:40;;;;;;;5.68;1.40;;;;;;;;;;6040955;23;20022;-48
2022/03/04 13:24:06;;;;;;;6.50;1.60;;;;;;;;;;6041875;23;20060;-45
2022/03/04 13:26:31;;;;;;;12.13;2.05;;;;;;;;;;6040912;23;20042;-44
2022/03/04 13:28:59;;;;;;;8.48;2.10;;;;;;;;;;6041728;23;20632;-44
2022/03/04 13:31:26;;;;;;;4.80;1.90;;;;;;;;;;6017113;23;20016;-45
2022/03/04 13:33:58;;;;;;;3.60;1.80;;;;;;;;;;6040912;23;20015;-44
2022/03/04 13:36:36;;;;;;;4.05;1.27;;;;;;;;;;6040885;23;20894;-45
2022/03/04 13:39:08;;;;;;;11.40;2.15;;;;;;;;;;6043323;23;20015;-44
2022/03/04 13:41:33;;;;;;;4.53;1.27;;;;;;;;;;6042069;23;20022;-44
2022/03/04 13:44:06;;;;;;;2.70;1.33;;;;;;;;;;6040094;23;20019;-45
2022/03/04 13:46:31;;;;;;;7.45;2.92;;;;;;;;;;6042585;23;20039;-43
2022/03/04 13:49:00;;;;;;;3.50;1.08;;;;;;;;;;6035962;23;20018;-44
2022/03/04 13:51:25;;;;;;;6.72;1.23;;;;;;;;;;6037524;23;20011;-47
2022/03/04 13:53:57;;;;;;;5.47;1.70;;;;;;;;;;6037116;23;20015;-44
2022/03/04 13:56:24;;;;;;;9.77;1.30;;;;;;;;;;6038790;23;20019;-43
2022/03/04 13:58:57;;;;;;;5.10;0.90;;;;;;;;;;6039145;23;20027;-43
2022/03/04 14:01:22;;;;;;;2.80;1.05;;;;;;;;;;6036675;23;20015;-44
2022/03/04 14:03:48;;;;;;;2.42;0.98;;;;;;;;;;6039462;23;20019;-43
2022/03/04 14:06:13;;;;;;;6.43;1.52;;;;;;;;;;6036750;23;20011;-44
2022/03/04 14:08:39;;;;;;;6.28;1.77;;;;;;;;;;6038392;23;20015;-43
2022/03/04 14:11:06;;;;;;;3.75;1.33;;;;;;;;;;6038099;23;20035;-43
2022/03/04 14:13:31;;;;;;;5.43;1.35;;;;;;;;;;6037761;23;20060;-43
2022/03/04 14:15:57;;;;;;;15.40;2.65;;;;;;;;;;6037279;23;20090;-43
2022/03/04 14:18:26;;;;;;;6.53;1.70;;;;;;;;;;6037901;23;20012;-45
2022/03/04 14:20:52;;;;;;;5.20;2.05;;;;;;;;;;6038109;23;20015;-47
2022/03/04 14:23:18;;;;;;;11.85;1.27;;;;;;;;;;6031873;23;20066;-46
2022/03/04 14:25:43;;;;;;;2.08;1.20;;;;;;;;;;6040760;23;20030;-43
2022/03/04 14:28:10;;;;;;;11.13;2.72;;;;;;;;;;6037119;23;20015;-43
2022/03/04 14:30:36;;;;;;;4.93;1.30;;;;;;;;;;6040652;23;20008;-44
2022/03/04 14:33:04;;;;;;;8.85;1.95;;;;;;;;;;6039109;23;20022;-43
2022/03/04 14:35:30;;;;;;;3.03;1.13;;;;;;;;;;6042060;23;20035;-43
2022/03/04 14:37:56;;;;;;;6.55;1.60;;;;;;;;;;6040713;23;20382;-44
2022/03/04 14:40:21;;;;;;;4.20;1.30;;;;;;;;;;6040875;23;20007;-43